.
WxDataArchive / Data Records for 2013-09-21
2013-09-20 September 2013 2013-09-22

Data Records for Saturday, 21 September 2013

Time	Temp	Chill	HIndex	Humid	Dewpt	 Wind 	HiWind	WindDir	Rain 	Barom 
-----	----	-----	------	-----	-----	------	------	-------	-----	----- 
00:00	66.9	66.9	66.9	95	65.4	0	1	270	0.00	29.740 
00:05	67.1	67.1	67.1	95	65.6	0	1	270	0.00	29.740 
00:10	67.1	67.1	67.1	95	65.6	0	1	270	0.00	29.740 
00:15	67.1	67.1	67.1	95	65.6	0	4	270	0.00	29.744 
00:20	66.9	66.9	66.9	95	65.4	1	3	270	0.00	29.744 
00:25	66.4	66.4	66.4	95	64.9	1	5	338	0.00	29.744 
00:30	66.3	66.3	66.3	95	64.8	1	3	270	0.00	29.744 
00:35	66.1	66.1	66.1	95	64.6	0	1	270	0.00	29.744 
00:40	66.0	66.0	66.0	95	64.5	0	1	270	0.00	29.744 
00:45	66.0	66.0	66.0	95	64.5	0	2	270	0.00	29.740 
00:50	65.8	65.8	65.8	95	64.3	0	1	270	0.00	29.740 
00:55	65.8	65.8	65.8	94	64.0	1	3	270	0.00	29.740 
01:00	65.6	65.6	65.6	94	63.8	1	3	270	0.00	29.743 
01:05	65.5	65.5	65.5	94	63.7	1	3	292	0.00	29.743 
01:10	65.3	65.3	65.3	94	63.5	1	3	292	0.00	29.743 
01:15	65.0	65.0	65.0	93	62.9	0	3	292	0.00	29.736 
01:20	65.0	65.0	65.0	93	62.9	0	1	292	0.00	29.736 
01:25	64.8	64.8	64.8	93	62.7	0	1	292	0.00	29.736 
01:30	64.7	64.7	64.7	93	62.6	0	1	292	0.00	29.733 
01:35	64.3	64.3	64.3	92	61.9	0	2	292	0.00	29.733 
01:40	64.2	64.2	64.2	92	61.8	0	2	292	0.00	29.733 
01:45	64.0	64.0	64.0	91	61.3	0	1	292	0.00	29.732 
01:50	63.9	63.9	63.9	90	60.9	0	2	292	0.00	29.732 
01:55	63.9	63.9	63.9	90	60.9	0	3	292	0.00	29.732 
02:00	63.9	63.9	63.9	89	60.6	0	1	292	0.00	29.733 
02:05	63.9	63.9	63.9	89	60.6	0	1	292	0.00	29.733 
02:10	63.7	63.7	63.7	89	60.4	0	2	292	0.00	29.733 
02:15	63.5	63.5	63.5	89	60.2	1	3	292	0.00	29.740 
02:20	63.5	63.5	63.5	88	59.9	1	3	292	0.00	29.740 
02:25	63.5	63.5	63.5	88	59.9	1	3	292	0.00	29.740 
02:30	63.5	63.5	63.5	87	59.6	1	4	315	0.00	29.741 
02:35	63.4	63.4	63.4	87	59.5	1	3	315	0.00	29.741 
02:40	63.2	63.2	63.2	86	58.9	1	3	315	0.00	29.741 
02:45	63.2	63.2	63.2	85	58.6	1	4	315	0.00	29.740 
02:50	63.2	63.2	63.2	85	58.6	1	4	292	0.00	29.740 
02:55	63.1	63.1	63.1	85	58.5	0	2	292	0.00	29.740 
03:00	62.9	62.9	62.9	85	58.3	0	3	292	0.00	29.740 
03:05	62.7	62.7	62.7	85	58.1	0	2	292	0.00	29.740 
03:10	62.7	62.7	62.7	84	57.8	0	1	292	0.00	29.740 
03:15	62.6	62.6	62.6	84	57.7	0	2	292	0.00	29.736 
03:20	62.6	62.6	62.6	84	57.7	0	3	292	0.00	29.736 
03:25	62.6	62.6	62.6	84	57.7	0	2	292	0.00	29.736 
03:30	62.4	62.4	62.4	84	57.5	0	2	292	0.00	29.733 
03:35	62.4	62.4	62.4	84	57.5	0	0	---	0.00	29.733 
03:40	62.3	62.3	62.3	85	57.7	0	1	292	0.00	29.733 
03:45	62.3	62.3	62.3	86	58.1	0	2	292	0.00	29.728 
03:50	62.1	62.1	62.1	86	57.9	0	2	292	0.00	29.728 
03:55	62.0	62.0	62.0	86	57.8	0	1	292	0.00	29.728 
04:00	61.8	61.8	61.8	87	57.9	0	1	292	0.00	29.728 
04:05	61.6	61.6	61.6	87	57.7	0	1	292	0.00	29.728 
04:10	61.5	61.5	61.5	87	57.6	0	2	292	0.00	29.728 
04:15	61.3	61.3	61.3	87	57.4	0	2	292	0.00	29.725 
04:20	61.2	61.2	61.2	87	57.3	0	2	292	0.00	29.725 
04:25	61.0	61.0	61.0	87	57.1	0	1	292	0.00	29.725 
04:30	60.9	60.9	60.9	86	56.7	0	2	292	0.00	29.725 
04:35	60.7	60.7	60.7	86	56.5	0	1	292	0.00	29.725 
04:40	60.5	60.5	60.5	86	56.3	0	2	292	0.00	29.725 
04:45	60.5	60.5	60.5	86	56.3	0	1	292	0.00	29.725 
04:50	60.5	60.5	60.5	86	56.3	0	1	292	0.00	29.725 
04:55	60.4	60.4	60.4	86	56.2	0	1	292	0.00	29.725 
05:00	60.2	60.2	60.2	87	56.3	0	1	292	0.00	29.721 
05:05	60.1	60.1	60.1	87	56.2	0	2	292	0.00	29.721 
05:10	60.1	60.1	60.1	87	56.2	0	1	292	0.00	29.721 
05:15	59.9	59.9	59.9	87	56.0	0	2	292	0.00	29.719 
05:20	59.8	59.8	59.8	87	55.9	0	1	292	0.00	29.719 
05:25	59.6	59.6	59.6	87	55.7	0	1	292	0.00	29.719 
05:30	59.6	59.6	59.6	87	55.7	0	1	292	0.00	29.719 
05:35	59.5	59.5	59.5	87	55.6	0	2	292	0.00	29.719 
05:40	59.5	59.5	59.5	87	55.6	0	1	292	0.00	29.719 
05:45	59.3	59.3	59.3	87	55.4	0	1	292	0.00	29.719 
05:50	59.3	59.3	59.3	87	55.4	0	1	292	0.00	29.719 
05:55	59.3	59.3	59.3	87	55.4	0	1	292	0.00	29.719 
06:00	59.2	59.2	59.2	87	55.3	0	1	292	0.00	29.722 
06:05	59.2	59.2	59.2	87	55.3	0	1	292	0.00	29.722 
06:10	59.0	59.0	59.0	88	55.4	0	1	292	0.00	29.722 
06:15	59.0	59.0	59.0	88	55.4	0	1	292	0.00	29.722 
06:20	58.9	58.9	58.9	88	55.3	0	1	292	0.00	29.722 
06:25	58.9	58.9	58.9	88	55.3	0	1	292	0.00	29.722 
06:30	58.7	58.7	58.7	88	55.2	0	1	292	0.00	29.720 
06:35	58.6	58.6	58.6	88	55.1	0	1	292	0.00	29.720 
06:40	58.6	58.6	58.6	89	55.4	0	1	292	0.00	29.720 
06:45	58.4	58.4	58.4	89	55.2	0	1	292	0.00	29.724 
06:50	58.4	58.4	58.4	89	55.2	0	1	292	0.00	29.724 
06:55	58.3	58.3	58.3	89	55.1	0	1	292	0.00	29.724 
07:00	58.3	58.3	58.3	89	55.1	0	0	---	0.00	29.720 
07:05	58.1	58.1	58.1	90	55.2	0	1	292	0.00	29.720 
07:10	58.1	58.1	58.1	90	55.2	0	1	292	0.00	29.720 
07:15	58.1	58.1	58.1	90	55.2	0	1	292	0.00	29.731 
07:20	58.0	58.0	58.0	90	55.1	0	1	292	0.00	29.731 
07:25	58.0	58.0	58.0	90	55.1	0	1	292	0.00	29.731 
07:30	58.0	58.0	58.0	90	55.1	0	1	292	0.00	29.731 
07:35	57.8	57.8	57.8	91	55.2	0	1	292	0.00	29.731 
07:40	57.8	57.8	57.8	91	55.2	0	1	292	0.00	29.731 
07:45	57.6	57.6	57.6	91	55.0	0	1	292	0.00	29.737 
07:50	57.6	57.6	57.6	91	55.0	0	1	292	0.00	29.737 
07:55	57.5	57.5	57.5	91	54.9	0	1	292	0.00	29.737 
08:00	57.5	57.5	57.5	91	54.9	0	2	292	0.00	29.736 
08:05	57.3	57.3	57.3	91	54.7	0	3	292	0.00	29.736 
08:10	57.3	57.3	57.3	91	54.7	0	2	292	0.00	29.736 
08:15	57.2	57.2	57.2	91	54.6	0	1	292	0.00	29.743 
08:20	57.2	57.2	57.2	92	54.9	0	1	292	0.00	29.743 
08:25	57.2	57.2	57.2	92	54.9	0	1	292	0.00	29.743 
08:30	57.0	57.0	57.0	92	54.7	0	1	292	0.00	29.743 
08:35	57.0	57.0	57.0	92	54.7	0	1	292	0.00	29.743 
08:40	57.0	57.0	57.0	92	54.7	0	1	292	0.00	29.743 
08:45	57.0	57.0	57.0	92	54.7	0	2	292	0.00	29.746 
08:50	57.2	57.2	57.2	92	54.9	0	1	292	0.00	29.746 
08:55	57.3	57.3	57.3	92	55.0	0	2	292	0.00	29.746 
09:00	57.5	57.5	57.5	92	55.2	0	3	292	0.00	29.746 
09:05	57.5	57.5	57.5	92	55.2	0	2	292	0.00	29.746 
09:10	57.5	57.5	57.5	92	55.2	1	3	292	0.00	29.746 
09:15	57.6	57.6	57.6	92	55.3	0	2	292	0.00	29.747 
09:20	58.1	58.1	58.1	92	55.8	1	3	292	0.00	29.747 
09:25	58.6	58.6	58.6	92	56.3	0	1	292	0.00	29.747 
09:30	58.9	58.9	58.9	92	56.6	1	4	292	0.00	29.747 
09:35	59.3	59.3	59.3	91	56.7	1	3	270	0.00	29.747 
09:40	59.8	59.8	59.8	90	56.9	1	4	270	0.00	29.747 
09:45	60.1	60.1	60.1	89	56.8	2	5	292	0.00	29.745 
09:50	60.5	60.5	60.5	88	56.9	2	7	292	0.00	29.745 
09:55	60.9	60.9	60.9	87	57.0	1	4	315	0.00	29.745 
10:00	61.0	61.0	61.0	86	56.8	2	5	270	0.00	29.750 
10:05	61.2	61.2	61.2	85	56.6	2	6	292	0.00	29.750 
10:10	61.3	61.3	61.3	84	56.4	2	6	315	0.00	29.750 
10:15	61.5	61.5	61.5	84	56.6	2	4	292	0.00	29.757 
10:20	61.8	61.8	61.8	83	56.6	2	5	315	0.00	29.757 
10:25	62.0	62.0	62.0	82	56.4	3	5	292	0.00	29.757 
10:30	62.1	62.1	62.1	81	56.2	1	4	292	0.00	29.757 
10:35	63.1	63.1	63.1	82	57.5	1	4	315	0.00	29.757 
10:40	63.4	63.4	63.4	77	56.1	3	6	338	0.00	29.757 
10:45	63.2	63.2	63.2	77	55.9	2	6	0	0.00	29.758 
10:50	62.7	62.7	62.7	78	55.7	2	4	338	0.00	29.758 
10:55	63.1	63.1	63.1	78	56.1	2	4	315	0.00	29.758 
11:00	63.9	63.9	63.9	76	56.2	1	3	315	0.00	29.759 
11:05	64.2	64.2	64.2	74	55.7	2	6	338	0.00	29.759 
11:10	63.5	63.5	63.5	74	55.1	2	6	315	0.00	29.759 
11:15	63.1	63.1	63.1	74	54.7	2	4	292	0.00	29.761 
11:20	63.4	63.4	63.4	72	54.2	3	7	292	0.00	29.761 
11:25	64.3	64.3	64.3	71	54.7	1	3	0	0.00	29.761 
11:30	65.2	65.2	65.2	69	54.8	2	5	270	0.00	29.758 
11:35	64.7	64.7	64.7	66	53.1	3	6	292	0.00	29.758 
11:40	64.2	64.2	64.2	65	52.2	3	5	315	0.00	29.758 
11:45	64.2	64.2	64.2	65	52.2	2	5	315	0.00	29.770 
11:50	64.7	64.7	64.7	64	52.2	2	5	315	0.00	29.770 
11:55	65.6	65.6	65.6	65	53.5	2	4	315	0.00	29.770 
12:00	65.2	65.2	65.2	63	52.3	2	4	270	0.00	29.770 
12:05	64.7	64.7	64.7	63	51.8	2	5	292	0.00	29.770 
12:10	65.6	65.6	65.6	62	52.2	2	4	315	0.00	29.770 
12:15	66.0	66.0	66.0	60	51.7	3	6	292	0.00	29.773 
12:20	66.3	66.3	66.3	62	52.9	2	7	338	0.00	29.773 
12:25	66.4	66.4	66.4	61	52.5	3	7	338	0.00	29.773 
12:30	66.3	66.3	66.3	58	51.1	2	6	338	0.00	29.773 
12:35	66.4	66.4	66.4	57	50.7	3	10	338	0.00	29.773 
12:40	66.6	66.6	66.6	55	49.9	3	5	338	0.00	29.773 
12:45	65.8	65.8	65.8	55	49.2	3	6	292	0.00	29.773 
12:50	65.6	65.6	65.6	56	49.5	2	5	292	0.00	29.773 
12:55	66.6	66.6	66.6	56	50.4	3	6	292	0.00	29.773 
13:00	66.9	66.9	66.9	54	49.7	3	6	315	0.00	29.774 
13:05	67.1	67.1	67.1	52	48.9	3	5	270	0.00	29.774 
13:10	67.1	67.1	67.1	51	48.4	3	6	315	0.00	29.774 
13:15	67.4	67.4	67.4	52	49.2	2	3	315	0.00	29.774 
13:20	67.4	67.4	67.4	48	47.0	3	6	292	0.00	29.774 
13:25	67.4	67.4	67.4	49	47.6	3	6	315	0.00	29.774 
13:30	67.8	67.8	67.8	49	47.9	3	6	292	0.00	29.774 
13:35	67.8	67.8	67.8	47	46.8	3	6	338	0.00	29.774 
13:40	67.6	67.6	67.6	48	47.2	4	6	315	0.00	29.774 
13:45	67.9	67.9	67.9	46	46.3	3	8	315	0.00	29.773 
13:50	67.4	67.4	67.4	48	47.0	3	6	315	0.00	29.773 
13:55	68.1	68.1	68.1	47	47.1	2	5	292	0.00	29.773 
14:00	68.6	68.6	68.6	47	47.6	3	6	270	0.00	29.770 
14:05	68.8	68.8	68.8	47	47.7	3	6	270	0.00	29.770 
14:10	68.8	68.8	68.8	43	45.4	4	7	292	0.00	29.770 
14:15	68.9	68.9	68.9	44	46.1	2	5	338	0.00	29.768 
14:20	69.1	69.1	69.1	44	46.3	2	7	315	0.00	29.768 
14:25	69.1	69.1	69.1	45	46.9	3	6	292	0.00	29.768 
14:30	69.4	69.4	69.4	45	47.1	2	6	270	0.00	29.761 
14:35	69.8	69.8	69.8	46	48.1	3	5	315	0.00	29.761 
14:40	68.6	68.6	68.6	47	47.6	3	5	270	0.00	29.761 
14:45	67.4	67.4	67.4	49	47.6	4	7	292	0.00	29.773 
14:50	66.8	66.8	66.8	46	45.3	2	4	315	0.00	29.773 
14:55	66.9	66.9	66.9	46	45.4	2	4	338	0.00	29.773 
15:00	67.9	67.9	67.9	48	47.5	1	4	338	0.00	29.769 
15:05	68.6	68.6	68.6	46	47.0	2	5	338	0.00	29.769 
15:10	68.1	68.1	68.1	46	46.5	2	5	315	0.00	29.769 
15:15	67.6	67.6	67.6	48	47.2	1	3	315	0.00	29.776 
15:20	67.1	67.1	67.1	49	47.3	2	6	338	0.00	29.776 
15:25	66.8	66.8	66.8	47	45.9	2	6	338	0.00	29.776 
15:30	66.9	66.9	66.9	49	47.1	1	5	270	0.00	29.779 
15:35	66.8	66.8	66.8	48	46.5	2	6	315	0.00	29.779 
15:40	66.3	66.3	66.3	49	46.6	3	7	315	0.00	29.779 
15:45	66.4	66.4	66.4	49	46.7	3	9	270	0.00	29.779 
15:50	67.1	67.1	67.1	48	46.7	3	6	315	0.00	29.779 
15:55	68.1	68.1	68.1	50	48.7	1	5	270	0.00	29.779 
16:00	68.4	68.4	68.4	46	46.8	2	6	315	0.00	29.778 
16:05	67.3	67.3	67.3	46	45.8	3	9	315	0.00	29.778 
16:10	66.4	66.4	66.4	46	45.0	3	7	315	0.00	29.778 
16:15	66.1	66.1	66.1	47	45.3	2	5	292	0.00	29.784 
16:20	66.4	66.4	66.4	48	46.1	2	5	292	0.00	29.784 
16:25	67.1	67.1	67.1	47	46.2	1	3	292	0.00	29.784 
16:30	67.8	67.8	67.8	44	45.1	2	6	292	0.00	29.776 
16:35	68.1	68.1	68.1	44	45.4	2	5	292	0.00	29.776 
16:40	68.6	68.6	68.6	46	47.0	2	6	292	0.00	29.776 
16:45	68.4	68.4	68.4	47	47.4	2	7	292	0.00	29.778 
16:50	67.3	67.3	67.3	47	46.4	2	9	315	0.00	29.778 
16:55	66.4	66.4	66.4	47	45.5	2	5	292	0.00	29.778 
17:00	66.0	66.0	66.0	48	45.7	1	4	315	0.00	29.786 
17:05	66.3	66.3	66.3	46	44.9	2	5	315	0.00	29.786 
17:10	66.6	66.6	66.6	44	44.0	1	4	315	0.00	29.786 
17:15	66.4	66.4	66.4	46	45.0	2	6	292	0.00	29.788 
17:20	66.3	66.3	66.3	44	43.7	3	5	315	0.00	29.788 
17:25	66.6	66.6	66.6	46	45.2	3	6	315	0.00	29.788 
17:30	66.9	66.9	66.9	43	43.7	3	6	270	0.00	29.790 
17:35	66.9	66.9	66.9	44	44.3	2	5	270	0.00	29.790 
17:40	66.6	66.6	66.6	45	44.6	3	5	270	0.00	29.790 
17:45	66.8	66.8	66.8	46	45.3	3	6	292	0.00	29.795 
17:50	66.9	66.9	66.9	47	46.0	2	5	292	0.00	29.795 
17:55	66.6	66.6	66.6	47	45.7	3	6	315	0.00	29.795 
18:00	65.8	65.8	65.8	48	45.6	2	6	292	0.00	29.799 
18:05	65.0	65.0	65.0	50	45.9	2	4	292	0.00	29.799 
18:10	64.5	64.5	64.5	50	45.4	2	6	315	0.00	29.799 
18:15	64.3	64.3	64.3	50	45.3	1	4	292	0.00	29.808 
18:20	64.7	64.7	64.7	50	45.6	1	4	315	0.00	29.808 
18:25	65.0	65.0	65.0	51	46.4	2	4	292	0.00	29.808 
18:30	64.7	64.7	64.7	50	45.6	4	10	315	0.00	29.812 
18:35	63.7	63.7	63.7	51	45.2	3	7	338	0.00	29.812 
18:40	62.9	62.9	62.9	52	45.0	2	5	270	0.00	29.812 
18:45	62.4	62.4	62.4	53	45.0	2	6	315	0.00	29.817 
18:50	62.1	62.1	62.1	54	45.3	3	6	292	0.00	29.817 
18:55	62.0	62.0	62.0	55	45.6	2	5	292	0.00	29.817 
19:00	61.8	61.8	61.8	56	45.9	2	4	315	0.00	29.826 
19:05	61.8	61.8	61.8	56	45.9	2	4	292	0.00	29.826 
19:10	61.5	61.5	61.5	56	45.7	1	4	315	0.00	29.826 
19:15	61.3	61.3	61.3	56	45.5	1	4	315	0.00	29.830 
19:20	61.2	61.2	61.2	57	45.8	1	3	292	0.00	29.830 
19:25	60.9	60.9	60.9	56	45.1	1	5	315	0.00	29.830 
19:30	60.7	60.7	60.7	56	44.9	2	7	315	0.00	29.830 
19:35	60.5	60.5	60.5	57	45.2	2	5	315	0.00	29.830 
19:40	60.1	60.1	60.1	58	45.3	1	4	315	0.00	29.830 
19:45	59.9	59.9	59.9	59	45.5	1	4	270	0.00	29.833 
19:50	59.5	59.5	59.5	60	45.6	0	2	315	0.00	29.833 
19:55	59.3	59.3	59.3	61	45.8	0	1	315	0.00	29.833 
20:00	59.0	59.0	59.0	61	45.6	0	1	315	0.00	29.836 
20:05	58.7	58.7	58.7	62	45.7	0	1	315	0.00	29.836 
20:10	58.4	58.4	58.4	62	45.4	0	2	315	0.00	29.836 
20:15	58.3	58.3	58.3	62	45.3	0	1	315	0.00	29.845 
20:20	58.0	58.0	58.0	63	45.5	0	1	315	0.00	29.845 
20:25	57.8	57.8	57.8	64	45.7	0	1	315	0.00	29.845 
20:30	57.5	57.5	57.5	64	45.4	0	1	315	0.00	29.850 
20:35	57.3	57.3	57.3	65	45.6	0	1	315	0.00	29.850 
20:40	57.2	57.2	57.2	65	45.5	0	1	315	0.00	29.850 
20:45	57.0	57.0	57.0	65	45.4	0	1	315	0.00	29.854 
20:50	56.9	56.9	56.9	66	45.7	0	2	315	0.00	29.854 
20:55	56.7	56.7	56.7	66	45.5	0	1	315	0.00	29.854 
21:00	56.6	56.6	56.6	67	45.8	0	2	315	0.00	29.860 
21:05	56.5	56.5	56.5	67	45.7	0	2	315	0.00	29.860 
21:10	56.5	56.5	56.5	68	46.1	0	1	315	0.00	29.860 
21:15	56.3	56.3	56.3	68	45.9	0	1	315	0.00	29.862 
21:20	56.2	56.2	56.2	69	46.2	0	1	315	0.00	29.862 
21:25	56.0	56.0	56.0	69	46.0	0	1	315	0.00	29.862 
21:30	55.9	55.9	55.9	70	46.3	0	1	315	0.00	29.866 
21:35	55.7	55.7	55.7	70	46.1	0	1	315	0.00	29.866 
21:40	55.6	55.6	55.6	71	46.3	0	1	315	0.00	29.866 
21:45	55.3	55.3	55.3	71	46.1	0	1	315	0.00	29.866 
21:50	55.1	55.1	55.1	72	46.2	0	1	315	0.00	29.866 
21:55	55.0	55.0	55.0	73	46.5	0	0	---	0.00	29.866 
22:00	54.8	54.8	54.8	73	46.3	0	1	315	0.00	29.866 
22:05	54.7	54.7	54.7	73	46.2	0	1	315	0.00	29.866 
22:10	54.5	54.5	54.5	74	46.4	0	0	---	0.00	29.866 
22:15	54.4	54.4	54.4	75	46.6	0	0	---	0.00	29.866 
22:20	54.2	54.2	54.2	75	46.4	0	0	---	0.00	29.866 
22:25	54.1	54.1	54.1	75	46.4	0	1	315	0.00	29.866 
22:30	53.9	53.9	53.9	76	46.5	0	0	---	0.00	29.870 
22:35	53.8	53.8	53.8	77	46.8	0	0	---	0.00	29.870 
22:40	53.6	53.6	53.6	77	46.6	0	0	---	0.00	29.870 
22:45	53.3	53.3	53.3	77	46.3	0	0	---	0.00	29.875 
22:50	53.2	53.2	53.2	78	46.5	0	0	---	0.00	29.875 
22:55	52.9	52.9	52.9	79	46.6	0	0	---	0.00	29.875 
23:00	52.8	52.8	52.8	79	46.5	0	0	---	0.00	29.879 
23:05	52.6	52.6	52.6	80	46.6	0	0	---	0.00	29.879 
23:10	52.5	52.5	52.5	81	46.8	0	0	---	0.00	29.879 
23:15	52.5	52.5	52.5	81	46.8	0	0	---	0.00	29.880 
23:20	52.3	52.3	52.3	81	46.6	0	0	---	0.00	29.880 
23:25	52.3	52.3	52.3	82	47.0	0	0	---	0.00	29.880 
23:30	52.2	52.2	52.2	82	46.9	0	0	---	0.00	29.885 
23:35	52.0	52.0	52.0	82	46.7	0	0	---	0.00	29.885 
23:40	51.9	51.9	51.9	83	46.9	0	0	---	0.00	29.885 
23:45	51.9	51.9	51.9	83	46.9	0	0	---	0.00	29.887 
23:50	51.6	51.6	51.6	83	46.6	0	0	---	0.00	29.887 
23:55	51.4	51.4	51.4	83	46.4	0	0	---	0.00	29.887 

CoCoRaHS
IN-AL-39
A2 Web Hosting
Creative Commons License
GoDaddy
search engine by freefind advanced

loaded 2018-11-17 05:33:47 • last modified 2010-11-18 10:43:29
Privacy PolicyDisclaimer
• wx.awcolley.com is powered by PmWiki v.2002016 •
• all content (unless otherwise noted) © 2018 A W Colley